sensor_id;sensor_type;location;lat;lon;timestamp;temperature;humidity
78455;SHT31;67751;51.986;5.696;2024-02-15T00:01:31;14.2;81.4
78455;SHT31;67751;51.986;5.696;2024-02-15T00:04:01;14.2;81.4
78455;SHT31;67751;51.986;5.696;2024-02-15T00:06:30;14.2;81.2
78455;SHT31;67751;51.986;5.696;2024-02-15T00:09:00;14.2;81.2
78455;SHT31;67751;51.986;5.696;2024-02-15T00:11:29;14.2;81.3
78455;SHT31;67751;51.986;5.696;2024-02-15T00:14:01;14.2;81.2
78455;SHT31;67751;51.986;5.696;2024-02-15T00:16:31;14.2;81.1
78455;SHT31;67751;51.986;5.696;2024-02-15T00:19:02;14.2;81.2
78455;SHT31;67751;51.986;5.696;2024-02-15T00:21:32;14.2;81.1
78455;SHT31;67751;51.986;5.696;2024-02-15T00:24:02;14.2;80.9
78455;SHT31;67751;51.986;5.696;2024-02-15T00:26:32;14.3;80.9
78455;SHT31;67751;51.986;5.696;2024-02-15T00:29:02;14.3;80.9
78455;SHT31;67751;51.986;5.696;2024-02-15T00:31:31;14.3;80.7
78455;SHT31;67751;51.986;5.696;2024-02-15T00:34:01;14.3;80.5
78455;SHT31;67751;51.986;5.696;2024-02-15T00:36:32;14.3;80.6
78455;SHT31;67751;51.986;5.696;2024-02-15T00:39:04;14.3;80.5
78455;SHT31;67751;51.986;5.696;2024-02-15T00:41:37;14.3;80.7
78455;SHT31;67751;51.986;5.696;2024-02-15T00:44:09;14.3;80.8
78455;SHT31;67751;51.986;5.696;2024-02-15T00:46:39;14.3;80.7
78455;SHT31;67751;51.986;5.696;2024-02-15T00:49:09;14.3;80.7
78455;SHT31;67751;51.986;5.696;2024-02-15T00:51:38;14.3;80.8
78455;SHT31;67751;51.986;5.696;2024-02-15T00:54:10;14.3;80.8
78455;SHT31;67751;51.986;5.696;2024-02-15T00:56:40;14.3;81.0
78455;SHT31;67751;51.986;5.696;2024-02-15T00:59:09;14.3;81.1
78455;SHT31;67751;51.986;5.696;2024-02-15T01:01:39;14.3;81.2
78455;SHT31;67751;51.986;5.696;2024-02-15T01:04:08;14.3;81.0
78455;SHT31;67751;51.986;5.696;2024-02-15T01:06:40;14.3;81.0
78455;SHT31;67751;51.986;5.696;2024-02-15T01:09:09;14.3;81.0
78455;SHT31;67751;51.986;5.696;2024-02-15T01:11:40;14.2;81.1
78455;SHT31;67751;51.986;5.696;2024-02-15T01:14:10;14.2;81.1
78455;SHT31;67751;51.986;5.696;2024-02-15T01:16:41;14.2;81.1
78455;SHT31;67751;51.986;5.696;2024-02-15T01:19:11;14.2;81.1
78455;SHT31;67751;51.986;5.696;2024-02-15T01:21:41;14.2;81.0
78455;SHT31;67751;51.986;5.696;2024-02-15T01:24:11;14.2;81.1
78455;SHT31;67751;51.986;5.696;2024-02-15T01:26:41;14.2;81.1
78455;SHT31;67751;51.986;5.696;2024-02-15T01:29:10;14.2;80.9
78455;SHT31;67751;51.986;5.696;2024-02-15T01:31:40;14.2;80.7
78455;SHT31;67751;51.986;5.696;2024-02-15T01:34:10;14.2;80.8
78455;SHT31;67751;51.986;5.696;2024-02-15T01:36:39;14.2;80.9
78455;SHT31;67751;51.986;5.696;2024-02-15T01:39:09;14.2;81.0
78455;SHT31;67751;51.986;5.696;2024-02-15T01:41:39;14.2;80.8
78455;SHT31;67751;51.986;5.696;2024-02-15T01:44:10;14.2;81.0
78455;SHT31;67751;51.986;5.696;2024-02-15T01:46:40;14.2;81.1
78455;SHT31;67751;51.986;5.696;2024-02-15T01:49:11;14.2;81.2
78455;SHT31;67751;51.986;5.696;2024-02-15T01:51:42;14.2;81.0
78455;SHT31;67751;51.986;5.696;2024-02-15T01:54:13;14.2;81.2
78455;SHT31;67751;51.986;5.696;2024-02-15T01:56:45;14.2;80.9
78455;SHT31;67751;51.986;5.696;2024-02-15T01:59:16;14.2;81.0
78455;SHT31;67751;51.986;5.696;2024-02-15T02:01:46;14.2;80.9
78455;SHT31;67751;51.986;5.696;2024-02-15T02:04:16;14.2;80.9
78455;SHT31;67751;51.986;5.696;2024-02-15T02:06:45;14.2;80.7
78455;SHT31;67751;51.986;5.696;2024-02-15T02:09:16;14.2;80.6
78455;SHT31;67751;51.986;5.696;2024-02-15T02:11:46;14.2;80.5
78455;SHT31;67751;51.986;5.696;2024-02-15T02:14:18;14.2;80.9
78455;SHT31;67751;51.986;5.696;2024-02-15T02:16:49;14.3;80.9
78455;SHT31;67751;51.986;5.696;2024-02-15T02:19:19;14.3;80.7
78455;SHT31;67751;51.986;5.696;2024-02-15T02:21:49;14.3;80.8
78455;SHT31;67751;51.986;5.696;2024-02-15T02:24:22;14.3;80.8
78455;SHT31;67751;51.986;5.696;2024-02-15T02:26:52;14.3;80.8
78455;SHT31;67751;51.986;5.696;2024-02-15T02:29:23;14.2;80.9
78455;SHT31;67751;51.986;5.696;2024-02-15T02:31:52;14.2;80.7
78455;SHT31;67751;51.986;5.696;2024-02-15T02:34:23;14.2;80.8
78455;SHT31;67751;51.986;5.696;2024-02-15T02:36:53;14.2;80.9
78455;SHT31;67751;51.986;5.696;2024-02-15T02:39:22;14.2;80.8
78455;SHT31;67751;51.986;5.696;2024-02-15T02:41:52;14.2;80.7
78455;SHT31;67751;51.986;5.696;2024-02-15T02:44:22;14.2;80.6
78455;SHT31;67751;51.986;5.696;2024-02-15T02:46:52;14.2;80.7
78455;SHT31;67751;51.986;5.696;2024-02-15T02:49:21;14.2;80.6
78455;SHT31;67751;51.986;5.696;2024-02-15T02:51:51;14.2;80.4
78455;SHT31;67751;51.986;5.696;2024-02-15T02:54:21;14.2;80.2
78455;SHT31;67751;51.986;5.696;2024-02-15T02:56:50;14.2;80.1
78455;SHT31;67751;51.986;5.696;2024-02-15T02:59:20;14.2;80.1
78455;SHT31;67751;51.986;5.696;2024-02-15T03:01:49;14.2;80.3
78455;SHT31;67751;51.986;5.696;2024-02-15T03:04:26;14.2;80.1
78455;SHT31;67751;51.986;5.696;2024-02-15T03:06:55;14.2;80.0
78455;SHT31;67751;51.986;5.696;2024-02-15T03:09:27;14.2;80.1
78455;SHT31;67751;51.986;5.696;2024-02-15T03:11:57;14.2;80.2
78455;SHT31;67751;51.986;5.696;2024-02-15T03:14:29;14.1;80.3
78455;SHT31;67751;51.986;5.696;2024-02-15T03:16:59;14.1;80.3
78455;SHT31;67751;51.986;5.696;2024-02-15T03:19:30;14.1;80.3
78455;SHT31;67751;51.986;5.696;2024-02-15T03:22:00;14.1;80.2
78455;SHT31;67751;51.986;5.696;2024-02-15T03:24:29;14.1;80.2
78455;SHT31;67751;51.986;5.696;2024-02-15T03:27:01;14.1;80.3
78455;SHT31;67751;51.986;5.696;2024-02-15T03:29:30;14.1;80.2
78455;SHT31;67751;51.986;5.696;2024-02-15T03:32:03;14.1;80.1
78455;SHT31;67751;51.986;5.696;2024-02-15T03:34:34;14.1;80.2
78455;SHT31;67751;51.986;5.696;2024-02-15T03:37:03;14.1;80.2
78455;SHT31;67751;51.986;5.696;2024-02-15T03:39:33;14.1;80.2
78455;SHT31;67751;51.986;5.696;2024-02-15T03:42:02;14.1;80.2
78455;SHT31;67751;51.986;5.696;2024-02-15T03:44:35;14.1;80.3
78455;SHT31;67751;51.986;5.696;2024-02-15T03:47:05;14.1;80.3
78455;SHT31;67751;51.986;5.696;2024-02-15T03:49:37;14.1;80.5
78455;SHT31;67751;51.986;5.696;2024-02-15T03:52:07;14.1;80.4
78455;SHT31;67751;51.986;5.696;2024-02-15T03:54:37;14.0;80.4
78455;SHT31;67751;51.986;5.696;2024-02-15T03:57:10;14.0;80.4
78455;SHT31;67751;51.986;5.696;2024-02-15T03:59:40;14.0;80.6
78455;SHT31;67751;51.986;5.696;2024-02-15T04:02:12;14.0;80.3
78455;SHT31;67751;51.986;5.696;2024-02-15T04:04:42;14.0;80.4
78455;SHT31;67751;51.986;5.696;2024-02-15T04:07:14;14.0;80.2
78455;SHT31;67751;51.986;5.696;2024-02-15T04:09:44;14.0;80.5
78455;SHT31;67751;51.986;5.696;2024-02-15T04:12:14;14.0;80.3
78455;SHT31;67751;51.986;5.696;2024-02-15T04:14:44;14.0;80.4
78455;SHT31;67751;51.986;5.696;2024-02-15T04:17:15;13.9;80.4
78455;SHT31;67751;51.986;5.696;2024-02-15T04:19:48;13.9;80.4
78455;SHT31;67751;51.986;5.696;2024-02-15T04:22:21;13.9;80.5
78455;SHT31;67751;51.986;5.696;2024-02-15T04:24:51;13.9;80.6
78455;SHT31;67751;51.986;5.696;2024-02-15T04:27:21;13.9;80.6
78455;SHT31;67751;51.986;5.696;2024-02-15T04:29:51;13.9;80.5
78455;SHT31;67751;51.986;5.696;2024-02-15T04:32:21;13.9;80.7
78455;SHT31;67751;51.986;5.696;2024-02-15T04:34:50;14.0;80.5
78455;SHT31;67751;51.986;5.696;2024-02-15T04:37:20;14.0;80.4
78455;SHT31;67751;51.986;5.696;2024-02-15T04:39:50;14.0;80.2
78455;SHT31;67751;51.986;5.696;2024-02-15T04:42:20;14.0;80.5
78455;SHT31;67751;51.986;5.696;2024-02-15T04:44:50;14.0;80.5
78455;SHT31;67751;51.986;5.696;2024-02-15T04:47:21;14.0;80.6
78455;SHT31;67751;51.986;5.696;2024-02-15T04:49:51;14.0;80.4
78455;SHT31;67751;51.986;5.696;2024-02-15T04:52:20;14.0;80.6
78455;SHT31;67751;51.986;5.696;2024-02-15T04:54:51;14.0;80.6
78455;SHT31;67751;51.986;5.696;2024-02-15T04:57:22;14.0;80.7
78455;SHT31;67751;51.986;5.696;2024-02-15T04:59:53;14.0;80.6
78455;SHT31;67751;51.986;5.696;2024-02-15T05:02:22;14.0;80.7
78455;SHT31;67751;51.986;5.696;2024-02-15T05:04:53;14.0;80.6
78455;SHT31;67751;51.986;5.696;2024-02-15T05:07:23;14.0;80.6
78455;SHT31;67751;51.986;5.696;2024-02-15T05:09:56;14.0;80.6
78455;SHT31;67751;51.986;5.696;2024-02-15T05:12:25;14.0;80.6
78455;SHT31;67751;51.986;5.696;2024-02-15T05:14:55;14.0;80.6
78455;SHT31;67751;51.986;5.696;2024-02-15T05:17:24;14.0;80.3
78455;SHT31;67751;51.986;5.696;2024-02-15T05:19:56;14.0;80.6
78455;SHT31;67751;51.986;5.696;2024-02-15T05:22:26;14.0;80.7
78455;SHT31;67751;51.986;5.696;2024-02-15T05:24:56;14.0;80.6
78455;SHT31;67751;51.986;5.696;2024-02-15T05:27:26;14.0;80.7
78455;SHT31;67751;51.986;5.696;2024-02-15T05:29:57;14.0;80.5
78455;SHT31;67751;51.986;5.696;2024-02-15T05:32:27;14.0;80.5
78455;SHT31;67751;51.986;5.696;2024-02-15T05:34:56;14.0;80.6
78455;SHT31;67751;51.986;5.696;2024-02-15T05:37:26;14.0;80.8
78455;SHT31;67751;51.986;5.696;2024-02-15T05:39:56;14.0;81.0
78455;SHT31;67751;51.986;5.696;2024-02-15T05:42:25;14.0;80.9
78455;SHT31;67751;51.986;5.696;2024-02-15T05:44:55;14.0;80.9
78455;SHT31;67751;51.986;5.696;2024-02-15T05:47:24;14.0;81.0
78455;SHT31;67751;51.986;5.696;2024-02-15T05:49:54;14.0;81.0
78455;SHT31;67751;51.986;5.696;2024-02-15T05:52:24;14.0;80.9
78455;SHT31;67751;51.986;5.696;2024-02-15T05:54:56;14.0;80.9
78455;SHT31;67751;51.986;5.696;2024-02-15T05:57:26;14.0;81.1
78455;SHT31;67751;51.986;5.696;2024-02-15T05:59:56;14.0;81.1
78455;SHT31;67751;51.986;5.696;2024-02-15T06:02:30;14.0;81.1
78455;SHT31;67751;51.986;5.696;2024-02-15T06:05:00;14.0;81.0
78455;SHT31;67751;51.986;5.696;2024-02-15T06:07:31;14.0;80.9
78455;SHT31;67751;51.986;5.696;2024-02-15T06:10:01;14.0;81.0
78455;SHT31;67751;51.986;5.696;2024-02-15T06:12:33;14.0;81.2
78455;SHT31;67751;51.986;5.696;2024-02-15T06:15:05;14.0;81.2
78455;SHT31;67751;51.986;5.696;2024-02-15T06:17:40;14.0;81.1
78455;SHT31;67751;51.986;5.696;2024-02-15T06:20:12;14.0;81.0
78455;SHT31;67751;51.986;5.696;2024-02-15T06:22:45;14.0;81.1
78455;SHT31;67751;51.986;5.696;2024-02-15T06:25:15;14.0;81.0
78455;SHT31;67751;51.986;5.696;2024-02-15T06:27:48;14.0;80.8
78455;SHT31;67751;51.986;5.696;2024-02-15T06:30:24;14.0;80.9
78455;SHT31;67751;51.986;5.696;2024-02-15T06:33:12;14.0;81.0
78455;SHT31;67751;51.986;5.696;2024-02-15T06:35:58;14.0;80.9
78455;SHT31;67751;51.986;5.696;2024-02-15T06:38:44;14.0;81.1
78455;SHT31;67751;51.986;5.696;2024-02-15T06:41:29;14.0;81.1
78455;SHT31;67751;51.986;5.696;2024-02-15T06:44:01;14.0;81.1
78455;SHT31;67751;51.986;5.696;2024-02-15T06:46:31;14.0;81.1
78455;SHT31;67751;51.986;5.696;2024-02-15T06:49:00;14.0;81.3
78455;SHT31;67751;51.986;5.696;2024-02-15T06:51:34;14.0;81.3
78455;SHT31;67751;51.986;5.696;2024-02-15T06:54:03;14.0;81.2
78455;SHT31;67751;51.986;5.696;2024-02-15T06:56:37;14.0;81.1
78455;SHT31;67751;51.986;5.696;2024-02-15T06:59:09;14.0;81.2
78455;SHT31;67751;51.986;5.696;2024-02-15T07:01:41;14.0;81.3
78455;SHT31;67751;51.986;5.696;2024-02-15T07:04:11;14.0;81.3
78455;SHT31;67751;51.986;5.696;2024-02-15T07:06:41;14.0;81.3
78455;SHT31;67751;51.986;5.696;2024-02-15T07:09:12;14.0;81.3
78455;SHT31;67751;51.986;5.696;2024-02-15T07:11:42;14.0;81.2
78455;SHT31;67751;51.986;5.696;2024-02-15T07:14:13;14.0;81.3
78455;SHT31;67751;51.986;5.696;2024-02-15T07:16:45;14.0;81.4
78455;SHT31;67751;51.986;5.696;2024-02-15T07:19:16;14.0;81.4
78455;SHT31;67751;51.986;5.696;2024-02-15T07:21:47;14.0;81.4
78455;SHT31;67751;51.986;5.696;2024-02-15T07:24:18;14.0;81.3
78455;SHT31;67751;51.986;5.696;2024-02-15T07:26:48;14.0;81.4
78455;SHT31;67751;51.986;5.696;2024-02-15T07:29:19;14.0;81.2
78455;SHT31;67751;51.986;5.696;2024-02-15T07:31:50;14.1;81.1
78455;SHT31;67751;51.986;5.696;2024-02-15T07:34:21;14.1;81.2
78455;SHT31;67751;51.986;5.696;2024-02-15T07:36:53;14.1;81.3
78455;SHT31;67751;51.986;5.696;2024-02-15T07:39:23;14.1;81.2
78455;SHT31;67751;51.986;5.696;2024-02-15T07:41:55;14.1;81.2
78455;SHT31;67751;51.986;5.696;2024-02-15T07:44:25;14.1;81.2
78455;SHT31;67751;51.986;5.696;2024-02-15T07:46:57;14.1;81.2
78455;SHT31;67751;51.986;5.696;2024-02-15T07:49:27;14.1;81.1
78455;SHT31;67751;51.986;5.696;2024-02-15T07:51:57;14.1;81.1
78455;SHT31;67751;51.986;5.696;2024-02-15T07:54:28;14.1;81.1
78455;SHT31;67751;51.986;5.696;2024-02-15T07:56:58;14.1;81.0
78455;SHT31;67751;51.986;5.696;2024-02-15T07:59:29;14.1;81.2
78455;SHT31;67751;51.986;5.696;2024-02-15T08:01:59;14.1;81.3
78455;SHT31;67751;51.986;5.696;2024-02-15T08:04:28;14.1;81.3
78455;SHT31;67751;51.986;5.696;2024-02-15T08:06:58;14.1;81.2
78455;SHT31;67751;51.986;5.696;2024-02-15T08:09:28;14.1;81.3
78455;SHT31;67751;51.986;5.696;2024-02-15T08:11:57;14.1;81.4
78455;SHT31;67751;51.986;5.696;2024-02-15T08:14:28;14.1;81.4
78455;SHT31;67751;51.986;5.696;2024-02-15T08:16:58;14.1;81.4
78455;SHT31;67751;51.986;5.696;2024-02-15T08:19:28;14.1;81.5
78455;SHT31;67751;51.986;5.696;2024-02-15T08:22:05;14.2;81.4
78455;SHT31;67751;51.986;5.696;2024-02-15T08:24:35;14.2;81.4
78455;SHT31;67751;51.986;5.696;2024-02-15T08:27:05;14.2;81.4
78455;SHT31;67751;51.986;5.696;2024-02-15T08:29:35;14.2;81.3
78455;SHT31;67751;51.986;5.696;2024-02-15T08:32:05;14.2;81.2
78455;SHT31;67751;51.986;5.696;2024-02-15T08:34:35;14.2;81.2
78455;SHT31;67751;51.986;5.696;2024-02-15T08:37:05;14.3;80.9
78455;SHT31;67751;51.986;5.696;2024-02-15T08:39:35;14.3;81.0
78455;SHT31;67751;51.986;5.696;2024-02-15T08:42:04;14.3;81.4
78455;SHT31;67751;51.986;5.696;2024-02-15T08:44:34;14.3;81.6
78455;SHT31;67751;51.986;5.696;2024-02-15T08:47:04;14.3;81.3
78455;SHT31;67751;51.986;5.696;2024-02-15T08:49:33;14.3;81.3
78455;SHT31;67751;51.986;5.696;2024-02-15T08:52:03;14.4;81.2
78455;SHT31;67751;51.986;5.696;2024-02-15T08:54:33;14.4;81.0
78455;SHT31;67751;51.986;5.696;2024-02-15T08:57:03;14.4;80.8
78455;SHT31;67751;51.986;5.696;2024-02-15T08:59:34;14.4;80.8
78455;SHT31;67751;51.986;5.696;2024-02-15T09:02:05;14.4;80.8
78455;SHT31;67751;51.986;5.696;2024-02-15T09:04:34;14.4;80.7
78455;SHT31;67751;51.986;5.696;2024-02-15T09:07:07;14.5;80.6
78455;SHT31;67751;51.986;5.696;2024-02-15T09:09:36;14.5;80.7
78455;SHT31;67751;51.986;5.696;2024-02-15T09:12:09;14.5;80.7
78455;SHT31;67751;51.986;5.696;2024-02-15T09:14:39;14.5;80.4
78455;SHT31;67751;51.986;5.696;2024-02-15T09:17:09;14.5;80.3
78455;SHT31;67751;51.986;5.696;2024-02-15T09:19:38;14.5;80.2
78455;SHT31;67751;51.986;5.696;2024-02-15T09:22:09;14.5;80.2
78455;SHT31;67751;51.986;5.696;2024-02-15T09:24:39;14.6;80.2
78455;SHT31;67751;51.986;5.696;2024-02-15T09:27:09;14.6;80.3
78455;SHT31;67751;51.986;5.696;2024-02-15T09:29:40;14.6;80.2
78455;SHT31;67751;51.986;5.696;2024-02-15T09:32:11;14.6;80.2
78455;SHT31;67751;51.986;5.696;2024-02-15T09:34:43;14.6;80.3
78455;SHT31;67751;51.986;5.696;2024-02-15T09:37:12;14.6;80.5
78455;SHT31;67751;51.986;5.696;2024-02-15T09:39:43;14.5;80.6
78455;SHT31;67751;51.986;5.696;2024-02-15T09:42:13;14.5;80.6
78455;SHT31;67751;51.986;5.696;2024-02-15T09:44:43;14.5;80.5
78455;SHT31;67751;51.986;5.696;2024-02-15T09:47:16;14.5;80.6
78455;SHT31;67751;51.986;5.696;2024-02-15T09:49:47;14.5;80.6
78455;SHT31;67751;51.986;5.696;2024-02-15T09:52:20;14.5;80.6
78455;SHT31;67751;51.986;5.696;2024-02-15T09:54:55;14.5;80.5
78455;SHT31;67751;51.986;5.696;2024-02-15T09:57:27;14.5;80.7
78455;SHT31;67751;51.986;5.696;2024-02-15T09:59:59;14.5;80.7
78455;SHT31;67751;51.986;5.696;2024-02-15T10:02:31;14.5;80.7
78455;SHT31;67751;51.986;5.696;2024-02-15T10:05:03;14.5;80.7
78455;SHT31;67751;51.986;5.696;2024-02-15T10:07:33;14.5;80.6
78455;SHT31;67751;51.986;5.696;2024-02-15T10:10:14;14.5;80.4
78455;SHT31;67751;51.986;5.696;2024-02-15T10:12:47;14.5;80.4
78455;SHT31;67751;51.986;5.696;2024-02-15T10:15:33;14.5;80.5
78455;SHT31;67751;51.986;5.696;2024-02-15T10:18:04;14.5;80.6
78455;SHT31;67751;51.986;5.696;2024-02-15T10:20:36;14.5;80.6
78455;SHT31;67751;51.986;5.696;2024-02-15T10:23:13;14.5;80.4
78455;SHT31;67751;51.986;5.696;2024-02-15T10:25:44;14.5;80.4
78455;SHT31;67751;51.986;5.696;2024-02-15T10:28:21;14.5;80.5
78455;SHT31;67751;51.986;5.696;2024-02-15T10:30:54;14.5;80.7
78455;SHT31;67751;51.986;5.696;2024-02-15T10:33:28;14.5;80.6
78455;SHT31;67751;51.986;5.696;2024-02-15T10:36:07;14.5;80.7
78455;SHT31;67751;51.986;5.696;2024-02-15T10:38:38;14.5;80.6
78455;SHT31;67751;51.986;5.696;2024-02-15T10:41:09;14.5;80.7
78455;SHT31;67751;51.986;5.696;2024-02-15T10:43:41;14.5;80.8
78455;SHT31;67751;51.986;5.696;2024-02-15T10:46:12;14.5;80.7
78455;SHT31;67751;51.986;5.696;2024-02-15T10:48:45;14.5;80.8
78455;SHT31;67751;51.986;5.696;2024-02-15T10:51:16;14.5;80.9
78455;SHT31;67751;51.986;5.696;2024-02-15T10:53:48;14.5;80.9
78455;SHT31;67751;51.986;5.696;2024-02-15T10:56:28;14.6;81.0
78455;SHT31;67751;51.986;5.696;2024-02-15T10:59:16;14.6;81.0
78455;SHT31;67751;51.986;5.696;2024-02-15T11:01:49;14.6;80.9
78455;SHT31;67751;51.986;5.696;2024-02-15T11:04:20;14.6;81.0
78455;SHT31;67751;51.986;5.696;2024-02-15T11:06:55;14.6;81.0
78455;SHT31;67751;51.986;5.696;2024-02-15T11:09:25;14.6;81.1
78455;SHT31;67751;51.986;5.696;2024-02-15T11:11:57;14.6;81.2
78455;SHT31;67751;51.986;5.696;2024-02-15T11:14:30;14.6;81.2
78455;SHT31;67751;51.986;5.696;2024-02-15T11:17:02;14.6;81.1
78455;SHT31;67751;51.986;5.696;2024-02-15T11:19:44;14.6;81.2
78455;SHT31;67751;51.986;5.696;2024-02-15T11:22:16;14.6;81.3
78455;SHT31;67751;51.986;5.696;2024-02-15T11:24:50;14.7;81.5
78455;SHT31;67751;51.986;5.696;2024-02-15T11:27:27;14.7;81.5
78455;SHT31;67751;51.986;5.696;2024-02-15T11:29:58;14.7;81.5
78455;SHT31;67751;51.986;5.696;2024-02-15T11:32:37;14.7;81.6
78455;SHT31;67751;51.986;5.696;2024-02-15T11:35:12;14.7;81.5
78455;SHT31;67751;51.986;5.696;2024-02-15T11:37:54;14.7;81.4
78455;SHT31;67751;51.986;5.696;2024-02-15T11:40:27;14.8;81.6
78455;SHT31;67751;51.986;5.696;2024-02-15T11:42:58;14.8;81.8
78455;SHT31;67751;51.986;5.696;2024-02-15T11:45:29;14.8;81.8
78455;SHT31;67751;51.986;5.696;2024-02-15T11:48:01;14.8;81.9
78455;SHT31;67751;51.986;5.696;2024-02-15T11:50:34;14.9;81.7
78455;SHT31;67751;51.986;5.696;2024-02-15T11:53:06;14.9;81.8
78455;SHT31;67751;51.986;5.696;2024-02-15T11:55:39;14.9;81.6
78455;SHT31;67751;51.986;5.696;2024-02-15T11:58:10;14.9;81.7
78455;SHT31;67751;51.986;5.696;2024-02-15T12:00:51;14.9;81.7
78455;SHT31;67751;51.986;5.696;2024-02-15T12:03:38;14.9;81.7
78455;SHT31;67751;51.986;5.696;2024-02-15T12:07:27;15.0;82.1
78455;SHT31;67751;51.986;5.696;2024-02-15T12:10:18;15.0;82.2
78455;SHT31;67751;51.986;5.696;2024-02-15T12:13:04;15.0;82.4
78455;SHT31;67751;51.986;5.696;2024-02-15T12:16:00;15.0;82.3
78455;SHT31;67751;51.986;5.696;2024-02-15T12:18:46;15.1;82.1
78455;SHT31;67751;51.986;5.696;2024-02-15T12:21:23;15.1;81.8
78455;SHT31;67751;51.986;5.696;2024-02-15T12:23:54;15.1;81.7
78455;SHT31;67751;51.986;5.696;2024-02-15T12:26:25;15.1;81.7
78455;SHT31;67751;51.986;5.696;2024-02-15T12:28:58;15.2;81.7
78455;SHT31;67751;51.986;5.696;2024-02-15T12:31:29;15.2;81.7
78455;SHT31;67751;51.986;5.696;2024-02-15T12:34:05;15.2;81.7
78455;SHT31;67751;51.986;5.696;2024-02-15T12:36:36;15.2;81.8
78455;SHT31;67751;51.986;5.696;2024-02-15T12:39:07;15.3;81.8
78455;SHT31;67751;51.986;5.696;2024-02-15T12:41:49;15.3;82.3
78455;SHT31;67751;51.986;5.696;2024-02-15T12:44:19;15.3;82.0
78455;SHT31;67751;51.986;5.696;2024-02-15T12:46:55;15.3;81.8
78455;SHT31;67751;51.986;5.696;2024-02-15T12:49:31;15.4;81.8
78455;SHT31;67751;51.986;5.696;2024-02-15T12:52:36;15.4;81.8
78455;SHT31;67751;51.986;5.696;2024-02-15T12:55:10;15.4;81.5
78455;SHT31;67751;51.986;5.696;2024-02-15T12:57:41;15.5;81.2
78455;SHT31;67751;51.986;5.696;2024-02-15T13:00:14;15.5;81.2
78455;SHT31;67751;51.986;5.696;2024-02-15T13:02:50;15.6;80.6
78455;SHT31;67751;51.986;5.696;2024-02-15T13:05:20;15.6;80.7
78455;SHT31;67751;51.986;5.696;2024-02-15T13:07:52;15.6;80.6
78455;SHT31;67751;51.986;5.696;2024-02-15T13:10:22;15.6;80.6
78455;SHT31;67751;51.986;5.696;2024-02-15T13:12:53;15.6;80.9
78455;SHT31;67751;51.986;5.696;2024-02-15T13:15:24;15.6;80.9
78455;SHT31;67751;51.986;5.696;2024-02-15T13:18:00;15.6;81.0
78455;SHT31;67751;51.986;5.696;2024-02-15T13:20:34;15.7;81.0
78455;SHT31;67751;51.986;5.696;2024-02-15T13:23:06;15.7;80.9
78455;SHT31;67751;51.986;5.696;2024-02-15T13:25:43;15.7;80.6
78455;SHT31;67751;51.986;5.696;2024-02-15T13:28:13;15.7;80.5
78455;SHT31;67751;51.986;5.696;2024-02-15T13:30:42;15.7;80.6
78455;SHT31;67751;51.986;5.696;2024-02-15T13:33:13;15.8;80.7
78455;SHT31;67751;51.986;5.696;2024-02-15T13:35:43;15.8;80.7
78455;SHT31;67751;51.986;5.696;2024-02-15T13:38:13;15.8;80.6
78455;SHT31;67751;51.986;5.696;2024-02-15T13:40:49;15.8;80.3
78455;SHT31;67751;51.986;5.696;2024-02-15T13:43:19;15.8;79.9
78455;SHT31;67751;51.986;5.696;2024-02-15T13:45:51;15.8;79.8
78455;SHT31;67751;51.986;5.696;2024-02-15T13:48:21;15.9;79.7
78455;SHT31;67751;51.986;5.696;2024-02-15T13:50:53;15.9;79.7
78455;SHT31;67751;51.986;5.696;2024-02-15T13:53:22;15.9;79.9
78455;SHT31;67751;51.986;5.696;2024-02-15T13:55:52;15.9;80.0
78455;SHT31;67751;51.986;5.696;2024-02-15T13:58:22;15.9;80.0
78455;SHT31;67751;51.986;5.696;2024-02-15T14:00:52;15.9;79.8
78455;SHT31;67751;51.986;5.696;2024-02-15T14:03:21;15.9;79.8
78455;SHT31;67751;51.986;5.696;2024-02-15T14:05:52;15.9;79.6
78455;SHT31;67751;51.986;5.696;2024-02-15T14:08:21;15.9;79.8
78455;SHT31;67751;51.986;5.696;2024-02-15T14:10:53;15.9;80.1
78455;SHT31;67751;51.986;5.696;2024-02-15T14:13:23;15.9;80.4
78455;SHT31;67751;51.986;5.696;2024-02-15T14:15:52;15.9;80.5
78455;SHT31;67751;51.986;5.696;2024-02-15T14:18:22;15.9;80.4
78455;SHT31;67751;51.986;5.696;2024-02-15T14:20:52;15.9;80.4
78455;SHT31;67751;51.986;5.696;2024-02-15T14:23:23;15.9;80.2
78455;SHT31;67751;51.986;5.696;2024-02-15T14:25:55;15.9;80.3
78455;SHT31;67751;51.986;5.696;2024-02-15T14:28:27;15.9;80.1
78455;SHT31;67751;51.986;5.696;2024-02-15T14:30:59;15.9;80.1
78455;SHT31;67751;51.986;5.696;2024-02-15T14:33:45;15.9;79.9
78455;SHT31;67751;51.986;5.696;2024-02-15T14:36:14;15.9;79.7
78455;SHT31;67751;51.986;5.696;2024-02-15T14:38:44;15.9;79.8
78455;SHT31;67751;51.986;5.696;2024-02-15T14:41:14;15.9;79.8
78455;SHT31;67751;51.986;5.696;2024-02-15T14:43:46;15.9;79.9
78455;SHT31;67751;51.986;5.696;2024-02-15T14:46:15;15.9;80.0
78455;SHT31;67751;51.986;5.696;2024-02-15T14:48:45;15.9;79.9
78455;SHT31;67751;51.986;5.696;2024-02-15T14:51:16;15.9;79.8
78455;SHT31;67751;51.986;5.696;2024-02-15T14:53:47;15.9;80.0
78455;SHT31;67751;51.986;5.696;2024-02-15T14:56:17;15.9;80.1
78455;SHT31;67751;51.986;5.696;2024-02-15T14:58:46;15.9;80.1
78455;SHT31;67751;51.986;5.696;2024-02-15T15:01:16;15.9;80.2
78455;SHT31;67751;51.986;5.696;2024-02-15T15:03:54;15.9;80.3
78455;SHT31;67751;51.986;5.696;2024-02-15T15:06:26;15.9;80.2
78455;SHT31;67751;51.986;5.696;2024-02-15T15:11:02;15.9;80.3
78455;SHT31;67751;51.986;5.696;2024-02-15T15:13:48;15.9;80.3
78455;SHT31;67751;51.986;5.696;2024-02-15T15:16:22;15.9;80.2
78455;SHT31;67751;51.986;5.696;2024-02-15T15:18:53;15.9;80.2
78455;SHT31;67751;51.986;5.696;2024-02-15T15:21:23;15.9;80.1
78455;SHT31;67751;51.986;5.696;2024-02-15T15:23:55;15.9;80.1
78455;SHT31;67751;51.986;5.696;2024-02-15T15:26:25;15.9;79.9
78455;SHT31;67751;51.986;5.696;2024-02-15T15:28:55;15.9;79.9
78455;SHT31;67751;51.986;5.696;2024-02-15T15:31:26;15.9;79.9
78455;SHT31;67751;51.986;5.696;2024-02-15T15:33:57;15.9;79.8
78455;SHT31;67751;51.986;5.696;2024-02-15T15:36:27;15.9;79.8
78455;SHT31;67751;51.986;5.696;2024-02-15T15:38:58;15.9;79.7
78455;SHT31;67751;51.986;5.696;2024-02-15T15:41:34;15.9;79.6
78455;SHT31;67751;51.986;5.696;2024-02-15T15:44:05;15.9;79.6
78455;SHT31;67751;51.986;5.696;2024-02-15T15:46:36;15.9;79.6
78455;SHT31;67751;51.986;5.696;2024-02-15T15:49:06;15.9;79.5
78455;SHT31;67751;51.986;5.696;2024-02-15T15:51:43;15.9;79.5
78455;SHT31;67751;51.986;5.696;2024-02-15T15:54:14;15.9;79.5
78455;SHT31;67751;51.986;5.696;2024-02-15T15:56:47;15.9;79.5
78455;SHT31;67751;51.986;5.696;2024-02-15T15:59:16;15.9;79.4
78455;SHT31;67751;51.986;5.696;2024-02-15T16:01:51;15.9;79.4
78455;SHT31;67751;51.986;5.696;2024-02-15T16:04:21;15.9;79.2
78455;SHT31;67751;51.986;5.696;2024-02-15T16:06:51;15.9;79.2
78455;SHT31;67751;51.986;5.696;2024-02-15T16:09:21;15.8;79.1
78455;SHT31;67751;51.986;5.696;2024-02-15T16:11:53;15.8;79.0
78455;SHT31;67751;51.986;5.696;2024-02-15T16:14:26;15.8;78.7
78455;SHT31;67751;51.986;5.696;2024-02-15T16:16:56;15.8;78.7
78455;SHT31;67751;51.986;5.696;2024-02-15T16:19:26;15.7;78.7
78455;SHT31;67751;51.986;5.696;2024-02-15T16:21:56;15.7;78.7
78455;SHT31;67751;51.986;5.696;2024-02-15T16:24:26;15.7;78.7
78455;SHT31;67751;51.986;5.696;2024-02-15T16:26:56;15.7;78.6
78455;SHT31;67751;51.986;5.696;2024-02-15T16:29:25;15.6;78.7
78455;SHT31;67751;51.986;5.696;2024-02-15T16:31:55;15.6;78.4
78455;SHT31;67751;51.986;5.696;2024-02-15T16:34:24;15.6;78.5